createdAt,value
2023-01-19T00:01:36.280Z,98225.56
2023-01-19T00:04:04.090Z,98239.44
2023-01-19T00:06:32.075Z,98229.03
2023-01-19T00:08:59.670Z,98233.44
2023-01-19T00:11:27.412Z,98232.00
2023-01-19T00:13:54.920Z,98232.66
2023-01-19T00:16:23.368Z,98238.00
2023-01-19T00:18:52.507Z,98239.34
2023-01-19T00:21:21.823Z,98229.56
2023-01-19T00:23:51.278Z,98233.56
2023-01-19T00:26:21.094Z,98235.31
2023-01-19T00:28:49.815Z,98227.41
2023-01-19T00:31:20.664Z,98220.00
2023-01-19T00:33:49.448Z,98217.75
2023-01-19T00:36:17.201Z,98225.06
2023-01-19T00:38:44.891Z,98223.00
2023-01-19T00:41:12.654Z,98219.59
2023-01-19T00:43:40.384Z,98221.12
2023-01-19T00:46:07.814Z,98223.84
2023-01-19T00:48:35.796Z,98230.06
2023-01-19T00:51:03.335Z,98207.31
2023-01-19T00:53:32.527Z,98211.91
2023-01-19T00:56:00.456Z,98218.75
2023-01-19T00:58:28.001Z,98214.06
2023-01-19T01:00:57.989Z,98219.72
2023-01-19T01:03:28.169Z,98217.19
2023-01-19T01:05:55.777Z,98221.06
2023-01-19T01:08:23.358Z,98207.91
2023-01-19T01:10:52.434Z,98211.19
2023-01-19T01:13:22.380Z,98215.63
2023-01-19T01:15:53.529Z,98211.75
2023-01-19T01:18:21.940Z,98223.66
2023-01-19T01:20:49.431Z,98228.59
2023-01-19T01:23:23.061Z,98228.06
2023-01-19T01:25:50.699Z,98231.81
2023-01-19T01:28:18.571Z,98217.31
2023-01-19T01:30:45.986Z,98225.66
2023-01-19T01:33:13.407Z,98235.34
2023-01-19T01:35:41.405Z,98232.91
2023-01-19T01:38:09.156Z,98231.91
2023-01-19T01:40:39.748Z,98235.84
2023-01-19T01:43:14.928Z,98235.69
2023-01-19T01:45:42.890Z,98244.78
2023-01-19T01:48:28.248Z,98235.69
2023-01-19T01:51:24.245Z,98243.16
2023-01-19T01:54:04.146Z,98261.75
2023-01-19T01:56:36.075Z,98258.63
2023-01-19T01:59:05.731Z,98268.19
2023-01-19T02:01:51.884Z,98264.59
2023-01-19T02:04:19.952Z,98277.87
2023-01-19T02:07:07.181Z,98282.06
2023-01-19T02:09:55.209Z,98280.84
2023-01-19T02:12:42.517Z,98285.09
2023-01-19T02:15:20.199Z,98264.72
2023-01-19T02:17:48.313Z,98231.03
2023-01-19T02:20:16.259Z,98209.22
2023-01-19T02:22:49.478Z,98218.91
2023-01-19T02:25:18.675Z,98233.22
2023-01-19T02:27:46.062Z,98258.22
2023-01-19T02:30:14.164Z,98269.13
2023-01-19T02:32:42.339Z,98281.25
2023-01-19T02:35:10.879Z,98279.88
2023-01-19T02:37:40.228Z,98266.81
2023-01-19T02:40:13.532Z,98248.22
2023-01-19T02:42:47.900Z,98245.00
2023-01-19T02:45:19.427Z,98255.66
2023-01-19T02:47:49.337Z,98244.06
2023-01-19T02:50:43.057Z,98234.84
2023-01-19T02:53:28.732Z,98233.28
2023-01-19T02:56:25.685Z,98241.16
2023-01-19T02:59:28.624Z,98253.38
2023-01-19T03:02:18.309Z,98252.09
2023-01-19T03:05:05.167Z,98253.38
2023-01-19T03:07:45.994Z,98253.88
2023-01-19T03:10:21.285Z,98246.69
2023-01-19T03:13:04.310Z,98253.63
2023-01-19T03:15:51.162Z,98267.81
2023-01-19T03:18:21.368Z,98272.69
2023-01-19T03:20:50.995Z,98292.59
2023-01-19T03:23:19.983Z,98282.00
2023-01-19T03:25:48.772Z,98287.44
2023-01-19T03:28:19.170Z,98255.63
2023-01-19T03:30:52.819Z,98233.16
2023-01-19T03:33:27.457Z,98216.06
2023-01-19T03:35:59.116Z,98211.16
2023-01-19T03:38:27.418Z,98209.94
2023-01-19T03:40:59.356Z,98208.28
2023-01-19T03:43:27.701Z,98202.37
2023-01-19T03:45:56.096Z,98194.03
2023-01-19T03:48:24.049Z,98193.31
2023-01-19T03:50:52.626Z,98191.94
2023-01-19T03:53:20.731Z,98198.75
2023-01-19T03:55:50.536Z,98191.44
2023-01-19T03:58:17.949Z,98202.81
2023-01-19T04:00:45.726Z,98216.94
2023-01-19T04:03:15.400Z,98235.16
2023-01-19T04:05:43.162Z,98267.44
2023-01-19T04:08:10.630Z,98262.87
2023-01-19T04:10:38.687Z,98256.50
2023-01-19T04:13:06.328Z,98270.03
2023-01-19T04:15:33.789Z,98270.75
2023-01-19T04:18:01.838Z,98271.91
2023-01-19T04:20:29.582Z,98270.03
2023-01-19T04:23:00.024Z,98263.97
2023-01-19T04:25:28.887Z,98244.81
2023-01-19T04:27:58.355Z,98250.41
2023-01-19T04:30:27.389Z,98232.97
2023-01-19T04:32:58.567Z,98236.69
2023-01-19T04:35:26.263Z,98246.66
2023-01-19T04:37:53.785Z,98250.00
2023-01-19T04:40:21.466Z,98249.97
2023-01-19T04:42:48.985Z,98235.47
2023-01-19T04:45:17.101Z,98232.44
2023-01-19T04:47:45.044Z,98231.44
2023-01-19T04:50:12.492Z,98218.56
2023-01-19T04:52:40.094Z,98255.06
2023-01-19T04:55:08.587Z,98263.19
2023-01-19T04:57:36.135Z,98252.72
2023-01-19T05:00:07.607Z,98260.12
2023-01-19T05:02:35.855Z,98266.69
2023-01-19T05:05:03.884Z,98270.34
2023-01-19T05:07:31.494Z,98273.81
2023-01-19T05:09:59.163Z,98272.72
2023-01-19T05:12:26.799Z,98260.50
2023-01-19T05:14:54.280Z,98256.97
2023-01-19T05:17:21.988Z,98268.22
2023-01-19T05:19:49.539Z,98277.94
2023-01-19T05:22:17.306Z,98295.66
2023-01-19T05:24:45.039Z,98300.31
2023-01-19T05:27:12.719Z,98317.66
2023-01-19T05:29:40.141Z,98325.34
2023-01-19T05:32:07.911Z,98326.41
2023-01-19T05:34:35.345Z,98327.91
2023-01-19T05:37:02.846Z,98322.13
2023-01-19T05:39:30.662Z,98316.03
2023-01-19T05:41:58.077Z,98311.13
2023-01-19T05:44:25.545Z,98306.94
2023-01-19T05:46:53.518Z,98301.34
2023-01-19T05:49:21.039Z,98304.72
2023-01-19T05:51:48.625Z,98298.31
2023-01-19T05:54:16.359Z,98308.28
2023-01-19T05:56:44.010Z,98302.94
2023-01-19T05:59:11.785Z,98285.81
2023-01-19T06:01:40.321Z,98286.31
2023-01-19T06:04:08.341Z,98285.03
2023-01-19T06:06:35.829Z,98297.41
2023-01-19T06:09:03.423Z,98294.44
2023-01-19T06:11:31.121Z,98291.22
2023-01-19T06:13:58.885Z,98279.53
2023-01-19T06:16:26.587Z,98263.06
2023-01-19T06:18:54.281Z,98270.00
2023-01-19T06:21:21.953Z,98267.47
2023-01-19T06:23:49.642Z,98246.47
2023-01-19T06:26:17.356Z,98239.94
2023-01-19T06:28:44.894Z,98241.53
2023-01-19T06:31:12.621Z,98246.38
2023-01-19T06:33:40.325Z,98242.72
2023-01-19T06:36:08.215Z,98264.72
2023-01-19T06:38:35.758Z,98289.22
2023-01-19T06:41:04.840Z,98294.94
2023-01-19T06:43:32.489Z,98299.78
2023-01-19T06:46:03.072Z,98315.38
2023-01-19T06:48:31.100Z,98312.06
2023-01-19T06:50:59.697Z,98302.94
2023-01-19T06:53:28.610Z,98296.47
2023-01-19T06:56:03.923Z,98291.53
2023-01-19T06:58:32.125Z,98292.38
2023-01-19T07:01:04.444Z,98286.34
2023-01-19T07:03:32.174Z,98278.66
2023-01-19T07:06:02.574Z,98260.75
2023-01-19T07:08:30.137Z,98271.44
2023-01-19T07:11:25.392Z,98272.41
2023-01-19T07:13:55.212Z,98270.44
2023-01-19T07:16:23.471Z,98282.31
2023-01-19T07:18:51.352Z,98294.31
2023-01-19T07:21:19.406Z,98292.16
2023-01-19T07:23:53.519Z,98312.09
2023-01-19T07:26:42.083Z,98307.66
2023-01-19T07:29:15.256Z,98313.78
2023-01-19T07:31:42.996Z,98317.84
2023-01-19T07:34:12.499Z,98327.25
2023-01-19T07:36:40.015Z,98328.16
2023-01-19T07:39:07.798Z,98332.13
2023-01-19T07:41:35.643Z,98327.81
2023-01-19T07:44:04.069Z,98329.97
2023-01-19T07:46:31.747Z,98331.87
2023-01-19T07:48:59.330Z,98334.75
2023-01-19T07:51:27.903Z,98329.34
2023-01-19T07:53:55.602Z,98339.69
2023-01-19T07:56:24.352Z,98340.31
2023-01-19T07:58:52.605Z,98347.69
2023-01-19T08:01:20.667Z,98350.03
2023-01-19T08:03:49.275Z,98345.81
2023-01-19T08:06:25.230Z,98344.31
2023-01-19T08:08:53.258Z,98343.94
2023-01-19T08:11:20.898Z,98334.47
2023-01-19T08:13:48.257Z,98327.50
2023-01-19T08:16:15.997Z,98317.66
2023-01-19T08:18:44.011Z,98320.41
2023-01-19T08:21:11.453Z,98315.41
2023-01-19T08:23:39.393Z,98323.47
2023-01-19T08:26:28.018Z,98319.13
2023-01-19T08:28:57.754Z,98316.91
2023-01-19T08:31:25.912Z,98309.87
2023-01-19T08:33:53.531Z,98314.09
2023-01-19T08:36:21.646Z,98322.13
2023-01-19T08:38:49.170Z,98332.47
2023-01-19T08:41:16.920Z,98335.97
2023-01-19T08:43:45.565Z,98341.75
2023-01-19T08:46:17.064Z,98335.81
2023-01-19T08:48:51.105Z,98338.44
2023-01-19T08:51:18.967Z,98339.16
2023-01-19T08:53:47.154Z,98339.19
2023-01-19T08:56:14.885Z,98337.28
2023-01-19T08:58:45.712Z,98333.31
2023-01-19T09:01:17.162Z,98338.22
2023-01-19T09:03:44.776Z,98330.44
2023-01-19T09:06:14.607Z,98327.41
2023-01-19T09:08:42.421Z,98336.88
2023-01-19T09:11:14.897Z,98333.66
2023-01-19T09:13:42.832Z,98346.91
2023-01-19T09:16:12.698Z,98349.16
2023-01-19T09:18:40.483Z,98365.50
2023-01-19T09:21:09.163Z,98360.56
2023-01-19T09:23:36.547Z,98361.03
2023-01-19T09:26:05.427Z,98360.53
2023-01-19T09:28:33.403Z,98353.38
2023-01-19T09:31:06.404Z,98347.66
2023-01-19T09:33:34.920Z,98347.28
2023-01-19T09:36:02.698Z,98360.53
2023-01-19T09:38:33.993Z,98358.75
2023-01-19T09:41:01.950Z,98356.78
2023-01-19T09:43:43.233Z,98354.03
2023-01-19T09:46:19.636Z,98347.13
2023-01-19T09:48:52.538Z,98341.31
2023-01-19T09:51:23.569Z,98354.91
2023-01-19T09:54:05.257Z,98348.59
2023-01-19T09:56:33.175Z,98356.66
2023-01-19T09:59:01.710Z,98361.87
2023-01-19T10:01:35.667Z,98367.56
2023-01-19T10:04:30.704Z,98367.97
2023-01-19T10:07:37.115Z,98378.28
2023-01-19T10:10:20.452Z,98367.41
2023-01-19T10:13:17.318Z,98363.37
2023-01-19T10:16:22.413Z,98369.03
2023-01-19T10:18:52.133Z,98367.38
2023-01-19T10:21:41.865Z,98365.84
2023-01-19T10:24:22.640Z,98369.56
2023-01-19T10:26:53.275Z,98369.78
2023-01-19T10:29:39.522Z,98367.19
2023-01-19T10:32:10.392Z,98367.38
2023-01-19T10:34:38.503Z,98365.06
2023-01-19T10:37:17.619Z,98371.44
2023-01-19T10:39:46.467Z,98382.69
2023-01-19T10:42:17.049Z,98383.72
2023-01-19T10:44:45.809Z,98382.94
2023-01-19T10:47:18.469Z,98392.72
2023-01-19T10:49:47.374Z,98385.50
2023-01-19T10:52:34.204Z,98388.88
2023-01-19T10:55:03.769Z,98392.47
2023-01-19T10:57:43.511Z,98403.19
2023-01-19T11:00:34.627Z,98400.63
2023-01-19T11:03:02.596Z,98398.81
2023-01-19T11:05:33.187Z,98404.50
2023-01-19T11:08:00.564Z,98401.41
2023-01-19T11:10:31.219Z,98400.81
2023-01-19T11:13:12.660Z,98389.50
2023-01-19T11:15:54.209Z,98394.41
2023-01-19T11:18:35.063Z,98389.62
2023-01-19T11:21:06.506Z,98381.47
2023-01-19T11:23:41.911Z,98388.31
2023-01-19T11:26:16.434Z,98379.31
2023-01-19T11:28:49.184Z,98386.34
2023-01-19T11:31:20.380Z,98384.91
2023-01-19T11:33:52.963Z,98391.00
2023-01-19T11:36:25.744Z,98396.66
2023-01-19T11:38:58.891Z,98400.81
2023-01-19T11:41:29.734Z,98394.25
2023-01-19T11:44:31.164Z,98392.87
2023-01-19T11:47:30.980Z,98396.03
2023-01-19T11:50:05.459Z,98396.72
2023-01-19T11:52:48.673Z,98399.22
2023-01-19T11:55:29.257Z,98398.50
2023-01-19T11:57:56.934Z,98403.94
2023-01-19T12:00:29.236Z,98411.16
2023-01-19T12:03:15.812Z,98402.19
2023-01-19T12:05:48.473Z,98411.69
2023-01-19T12:08:22.130Z,98418.03
2023-01-19T12:10:50.456Z,98427.94
2023-01-19T12:13:23.745Z,98420.94
2023-01-19T12:16:10.965Z,98429.00
2023-01-19T12:18:43.366Z,98424.44
2023-01-19T12:21:11.033Z,98436.94
2023-01-19T12:23:41.759Z,98445.03
2023-01-19T12:26:23.015Z,98447.16
2023-01-19T12:28:52.295Z,98456.25
2023-01-19T12:31:22.213Z,98458.25
2023-01-19T12:33:52.392Z,98457.84
2023-01-19T12:36:26.484Z,98464.03
2023-01-19T12:39:15.261Z,98465.34
2023-01-19T12:41:43.343Z,98462.75
2023-01-19T12:44:16.803Z,98469.19
2023-01-19T12:47:17.288Z,98476.00
2023-01-19T12:49:46.709Z,98478.84
2023-01-19T12:52:29.042Z,98478.69
2023-01-19T12:55:15.031Z,98472.69
2023-01-19T12:58:08.764Z,98485.38
2023-01-19T13:00:37.131Z,98480.81
2023-01-19T13:03:17.309Z,98481.56
2023-01-19T13:05:44.770Z,98500.53
2023-01-19T13:08:12.653Z,98511.00
2023-01-19T13:10:52.864Z,98514.00
2023-01-19T13:13:22.860Z,98519.03
2023-01-19T13:15:51.083Z,98518.41
2023-01-19T13:18:29.795Z,98523.81
2023-01-19T13:21:03.439Z,98526.34
2023-01-19T13:23:52.163Z,98527.44
2023-01-19T13:26:32.484Z,98540.78
2023-01-19T13:29:08.356Z,98547.75
2023-01-19T13:31:40.946Z,98542.16
2023-01-19T13:34:18.465Z,98543.66
2023-01-19T13:36:48.229Z,98557.19
2023-01-19T13:39:24.035Z,98566.53
2023-01-19T13:41:55.265Z,98576.94
2023-01-19T13:44:36.622Z,98579.25
2023-01-19T13:47:06.151Z,98576.97
2023-01-19T13:49:35.756Z,98585.16
2023-01-19T13:52:14.136Z,98590.47
2023-01-19T13:54:53.222Z,98601.19
2023-01-19T13:57:23.927Z,98600.66
2023-01-19T14:00:08.574Z,98591.34
2023-01-19T14:02:39.842Z,98598.22
2023-01-19T14:05:40.035Z,98580.25
2023-01-19T14:08:13.561Z,98579.72
2023-01-19T14:10:54.834Z,98580.09
2023-01-19T14:13:29.915Z,98596.28
2023-01-19T14:16:14.927Z,98596.44
2023-01-19T14:18:43.214Z,98585.22
2023-01-19T14:21:13.900Z,98594.12
2023-01-19T14:23:48.384Z,98599.66
2023-01-19T14:26:38.757Z,98605.91
2023-01-19T14:29:09.669Z,98610.88
2023-01-19T14:32:06.867Z,98610.44
2023-01-19T14:34:52.864Z,98616.19
2023-01-19T14:37:29.817Z,98609.50
2023-01-19T14:40:08.101Z,98616.06
2023-01-19T14:42:38.439Z,98622.34
2023-01-19T14:45:20.382Z,98615.16
2023-01-19T14:47:57.652Z,98619.25
2023-01-19T14:50:29.584Z,98629.63
2023-01-19T14:53:07.449Z,98640.31
2023-01-19T14:55:54.564Z,98645.91
2023-01-19T14:58:25.146Z,98662.16
2023-01-19T15:00:56.162Z,98686.84
2023-01-19T15:03:35.025Z,98689.44
2023-01-19T15:06:18.929Z,98691.06
2023-01-19T15:08:50.244Z,98682.97
2023-01-19T15:11:31.445Z,98664.16
2023-01-19T15:14:00.534Z,98653.56
2023-01-19T15:16:29.564Z,98669.81
2023-01-19T15:18:57.193Z,98667.50
2023-01-19T15:21:26.851Z,98650.50
2023-01-19T15:23:55.346Z,98665.69
2023-01-19T15:26:27.032Z,98677.97
2023-01-19T15:28:56.987Z,98671.78
2023-01-19T15:31:26.353Z,98679.38
2023-01-19T15:33:54.085Z,98688.19
2023-01-19T15:36:24.412Z,98690.16
2023-01-19T15:38:52.148Z,98697.91
2023-01-19T15:41:23.514Z,98694.03
2023-01-19T15:43:51.705Z,98697.44
2023-01-19T15:46:23.202Z,98696.47
2023-01-19T15:48:51.665Z,98708.16
2023-01-19T15:51:21.448Z,98716.53
2023-01-19T15:53:50.564Z,98715.31
2023-01-19T15:56:23.528Z,98730.88
2023-01-19T15:58:52.372Z,98731.34
2023-01-19T16:01:24.437Z,98733.94
2023-01-19T16:03:52.380Z,98729.84
2023-01-19T16:06:19.913Z,98740.06
2023-01-19T16:08:47.379Z,98745.53
2023-01-19T16:11:15.978Z,98753.31
2023-01-19T16:13:46.986Z,98757.09
2023-01-19T16:16:21.148Z,98769.34
2023-01-19T16:18:49.584Z,98770.28
2023-01-19T16:21:17.863Z,98782.19
2023-01-19T16:23:45.763Z,98786.41
2023-01-19T16:26:25.652Z,98789.22
2023-01-19T16:28:59.953Z,98802.47
2023-01-19T16:31:28.544Z,98802.44
2023-01-19T16:33:56.401Z,98808.94
2023-01-19T16:36:31.905Z,98828.47
2023-01-19T16:39:01.670Z,98835.13
2023-01-19T16:41:29.423Z,98833.44
2023-01-19T16:43:57.956Z,98844.03
2023-01-19T16:46:30.595Z,98843.00
2023-01-19T16:49:00.230Z,98848.88
2023-01-19T16:51:29.986Z,98859.03
2023-01-19T16:53:58.169Z,98870.09
2023-01-19T16:56:25.759Z,98874.47
2023-01-19T16:58:57.973Z,98871.03
2023-01-19T17:01:27.328Z,98874.44
2023-01-19T17:03:56.403Z,98878.53
2023-01-19T17:06:25.649Z,98870.78
2023-01-19T17:08:53.212Z,98876.34
2023-01-19T17:11:23.935Z,98886.75
2023-01-19T17:13:56.841Z,98889.31
2023-01-19T17:16:25.343Z,98899.59
2023-01-19T17:18:53.425Z,98899.81
2023-01-19T17:21:20.867Z,98905.63
2023-01-19T17:23:50.283Z,98900.19
2023-01-19T17:26:18.297Z,98911.78
2023-01-19T17:28:46.478Z,98904.47
2023-01-19T17:31:19.901Z,98909.75
2023-01-19T17:33:49.599Z,98908.09
2023-01-19T17:36:22.444Z,98904.94
2023-01-19T17:38:50.434Z,98903.81
2023-01-19T17:41:21.050Z,98911.53
2023-01-19T17:43:52.383Z,98904.22
2023-01-19T17:46:22.234Z,98908.75
2023-01-19T17:48:57.702Z,98913.75
2023-01-19T17:51:26.518Z,98917.25
2023-01-19T17:53:54.515Z,98914.69
2023-01-19T17:56:26.258Z,98921.94
2023-01-19T17:58:54.182Z,98923.91
2023-01-19T18:01:24.427Z,98933.00
2023-01-19T18:03:52.962Z,98938.22
2023-01-19T18:06:21.291Z,98945.28
2023-01-19T18:08:49.204Z,98945.44
2023-01-19T18:11:19.137Z,98949.22
2023-01-19T18:13:48.554Z,98958.69
2023-01-19T18:16:19.283Z,98954.59
2023-01-19T18:18:49.478Z,98953.72
2023-01-19T18:21:17.768Z,98956.94
2023-01-19T18:23:45.950Z,98950.13
2023-01-19T18:26:20.001Z,98965.53
2023-01-19T18:28:48.087Z,98961.22
2023-01-19T18:31:18.077Z,98967.31
2023-01-19T18:33:47.270Z,98972.25
2023-01-19T18:36:15.525Z,98975.88
2023-01-19T18:38:44.549Z,98969.31
2023-01-19T18:41:14.355Z,98969.47
2023-01-19T18:43:42.512Z,98970.31
2023-01-19T18:46:10.993Z,98967.78
2023-01-19T18:48:39.531Z,98976.59
2023-01-19T18:51:08.954Z,98973.06
2023-01-19T18:53:36.911Z,98961.31
2023-01-19T18:56:05.300Z,98973.75
2023-01-19T18:58:34.023Z,98970.38
2023-01-19T19:01:02.022Z,98978.69
2023-01-19T19:03:30.010Z,98970.78
2023-01-19T19:06:02.740Z,98973.63
2023-01-19T19:08:30.695Z,98979.22
2023-01-19T19:10:58.264Z,98984.91
2023-01-19T19:13:25.903Z,98972.94
2023-01-19T19:15:54.168Z,98982.03
2023-01-19T19:18:21.842Z,98983.62
2023-01-19T19:20:49.211Z,98988.06
2023-01-19T19:23:17.312Z,98992.81
2023-01-19T19:25:44.845Z,99001.53
2023-01-19T19:28:12.358Z,99015.41
2023-01-19T19:30:41.291Z,99014.22
2023-01-19T19:33:08.701Z,99019.88
2023-01-19T19:35:36.333Z,99021.50
2023-01-19T19:38:04.195Z,99029.75
2023-01-19T19:40:31.744Z,99027.47
2023-01-19T19:43:00.788Z,99040.91
2023-01-19T19:45:28.672Z,99035.63
2023-01-19T19:47:57.628Z,99050.50
2023-01-19T19:50:25.175Z,99043.88
2023-01-19T19:52:53.104Z,99052.06
2023-01-19T19:55:20.547Z,99049.09
2023-01-19T19:57:48.133Z,99046.75
2023-01-19T20:00:16.342Z,99041.97
2023-01-19T20:02:44.587Z,99048.03
2023-01-19T20:05:12.025Z,99048.75
2023-01-19T20:07:46.299Z,99051.69
2023-01-19T20:10:14.394Z,99037.00
2023-01-19T20:12:41.989Z,99033.06
2023-01-19T20:15:10.718Z,99034.13
2023-01-19T20:17:38.368Z,99031.84
2023-01-19T20:20:06.610Z,99045.63
2023-01-19T20:22:34.250Z,99047.75
2023-01-19T20:25:02.179Z,99057.09
2023-01-19T20:27:29.861Z,99056.16
2023-01-19T20:29:58.161Z,99057.72
2023-01-19T20:32:26.152Z,99045.78
2023-01-19T20:34:53.730Z,99038.75
2023-01-19T20:37:21.430Z,99033.41
2023-01-19T20:39:49.256Z,99034.88
2023-01-19T20:42:17.550Z,99037.72
2023-01-19T20:44:45.313Z,99043.53
2023-01-19T20:47:13.379Z,99043.69
2023-01-19T20:49:41.138Z,99037.22
2023-01-19T20:52:08.633Z,99031.66
2023-01-19T20:54:36.480Z,99033.53
2023-01-19T20:57:03.916Z,99034.50
2023-01-19T20:59:31.649Z,99040.41
2023-01-19T21:01:59.540Z,99037.03
2023-01-19T21:04:27.225Z,99037.16
2023-01-19T21:06:54.887Z,99043.53
2023-01-19T21:09:22.909Z,99040.59
2023-01-19T21:11:50.473Z,99047.19
2023-01-19T21:14:19.117Z,99051.88
2023-01-19T21:16:46.936Z,99051.78
2023-01-19T21:19:14.985Z,99058.75
2023-01-19T21:21:42.498Z,99058.84
2023-01-19T21:24:11.029Z,99053.47
2023-01-19T21:26:38.620Z,99050.59
2023-01-19T21:29:06.258Z,99067.97
2023-01-19T21:31:34.032Z,99071.84
2023-01-19T21:34:01.658Z,99072.69
2023-01-19T21:36:29.135Z,99080.47
2023-01-19T21:39:00.521Z,99082.41
2023-01-19T21:41:29.898Z,99096.06
2023-01-19T21:43:58.569Z,99103.97
2023-01-19T21:46:29.771Z,99086.69
2023-01-19T21:49:03.517Z,99095.34
2023-01-19T21:51:35.649Z,99114.47
2023-01-19T21:54:05.236Z,99143.03
2023-01-19T21:56:33.414Z,99174.97
2023-01-19T21:59:04.304Z,99201.75
2023-01-19T22:01:32.898Z,99208.59
2023-01-19T22:04:00.868Z,99208.13
2023-01-19T22:06:28.908Z,99187.72
2023-01-19T22:08:57.950Z,99171.75
2023-01-19T22:11:25.864Z,99158.38
2023-01-19T22:13:53.776Z,99145.28
2023-01-19T22:16:23.271Z,99141.34
2023-01-19T22:18:54.123Z,99141.06
2023-01-19T22:21:23.878Z,99148.63
2023-01-19T22:23:53.144Z,99155.03
2023-01-19T22:26:21.307Z,99147.50
2023-01-19T22:28:52.966Z,99152.78
2023-01-19T22:31:21.070Z,99150.09
2023-01-19T22:33:51.650Z,99147.63
2023-01-19T22:36:24.997Z,99138.38
2023-01-19T22:39:08.741Z,99149.25
2023-01-19T22:41:37.076Z,99150.69
2023-01-19T22:44:08.644Z,99155.63
2023-01-19T22:46:37.269Z,99143.59
2023-01-19T22:49:07.446Z,99136.56
2023-01-19T22:51:35.938Z,99133.13
2023-01-19T22:54:04.105Z,99120.12
2023-01-19T22:56:34.010Z,99126.72
2023-01-19T22:59:01.821Z,99133.44
2023-01-19T23:01:33.855Z,99136.91
2023-01-19T23:04:02.160Z,99133.91
2023-01-19T23:06:31.520Z,99130.63
2023-01-19T23:09:00.368Z,99115.97
2023-01-19T23:11:34.260Z,99116.44
2023-01-19T23:14:04.163Z,99106.66
2023-01-19T23:16:32.007Z,99096.00
2023-01-19T23:18:59.460Z,99095.47
2023-01-19T23:21:28.807Z,99093.81
2023-01-19T23:24:01.739Z,99090.59
2023-01-19T23:26:30.821Z,99089.81
2023-01-19T23:29:00.679Z,99077.66
2023-01-19T23:31:36.375Z,99086.84
2023-01-19T23:34:06.774Z,99083.97
2023-01-19T23:36:37.416Z,99087.31
2023-01-19T23:39:16.703Z,99101.84
2023-01-19T23:41:44.450Z,99107.19
2023-01-19T23:44:12.403Z,99121.59
2023-01-19T23:46:39.854Z,99120.75
2023-01-19T23:49:07.458Z,99131.06
2023-01-19T23:51:35.868Z,99136.53
2023-01-19T23:54:03.663Z,99136.75
2023-01-19T23:56:36.906Z,99141.94
2023-01-19T23:59:07.721Z,99136.09
